Time;durP1;ratioP1;P1;durP2;ratioP2;P2;SDS_P1;SDS_P2;PMS_P1;PMS_P2;Temp;Humidity;BMP_temperature;BMP_pressure;BME280_temperature;BME280_humidity;BME280_pressure;Samples;Min_cycle;Max_cycle;Signal;HPM_P1;HPM_P2
2022/09/13 00:01:33;;;;;;;4.82;4.43;;;10.80;99.90;;;;;;4829349;29;20503;-84
2022/09/13 00:04:01;;;;;;;4.25;3.85;;;10.80;99.90;;;;;;4830044;29;20057;-85
2022/09/13 00:06:29;;;;;;;5.63;5.07;;;10.20;99.90;;;;;;4836453;29;20053;-84
2022/09/13 00:08:57;;;;;;;4.60;4.20;;;10.10;99.90;;;;;;4828821;29;20519;-85
2022/09/13 00:11:27;;;;;;;5.03;4.53;;;10.20;99.90;;;;;;4844140;29;20060;-84
2022/09/13 00:13:56;;;;;;;5.45;4.15;;;10.20;99.90;;;;;;4860887;29;20057;-85
2022/09/13 00:16:26;;;;;;;4.55;4.15;;;10.30;99.90;;;;;;4860436;29;20045;-84
2022/09/13 00:18:55;;;;;;;5.40;4.85;;;10.60;99.90;;;;;;4845046;29;20068;-85
2022/09/13 00:21:23;;;;;;;4.05;3.58;;;10.30;99.90;;;;;;4859686;29;20052;-84
2022/09/13 00:23:57;;;;;;;4.82;4.43;;;10.30;99.90;;;;;;4859693;29;20049;-84
2022/09/13 00:26:38;;;;;;;4.45;4.05;;;10.30;99.90;;;;;;4850225;29;20057;-84
2022/09/13 00:29:05;;;;;;;3.85;3.53;;;10.30;99.90;;;;;;4840943;29;20053;-85
2022/09/13 00:31:33;;;;;;;7.47;4.13;;;10.70;99.90;;;;;;4857329;29;20041;-84
2022/09/13 00:34:00;;;;;;;7.85;3.65;;;10.00;99.90;;;;;;4842104;29;20056;-85
2022/09/13 00:36:28;;;;;;;4.80;4.40;;;10.50;99.90;;;;;;4859840;29;20060;-85
2022/09/13 00:38:56;;;;;;;5.07;4.15;;;9.90;99.90;;;;;;4829560;29;20076;-85
2022/09/13 00:41:26;;;;;;;6.18;4.35;;;9.90;99.90;;;;;;4829341;29;20059;-85
2022/09/13 00:44:00;;;;;;;5.85;5.00;;;9.90;99.90;;;;;;4843810;29;20049;-85
2022/09/13 00:46:40;;;;;;;7.32;5.50;;;10.00;99.90;;;;;;4845479;29;20048;-85
2022/09/13 00:49:19;;;;;;;4.68;4.15;;;10.00;99.90;;;;;;4845000;29;20076;-84
2022/09/13 00:51:56;;;;;;;5.80;4.90;;;10.10;99.90;;;;;;4844328;29;20048;-85
2022/09/13 00:54:32;;;;;;;3.92;3.53;;;10.20;99.90;;;;;;4876748;29;20399;-84
2022/09/13 00:57:09;;;;;;;10.63;5.18;;;10.20;99.90;;;;;;4830307;29;20053;-84
2022/09/13 00:59:47;;;;;;;5.50;5.07;;;9.80;99.90;;;;;;4858998;29;20057;-84
2022/09/13 01:02:23;;;;;;;6.90;3.53;;;9.90;99.90;;;;;;4828508;29;20056;-84
2022/09/13 01:04:55;;;;;;;4.68;4.22;;;9.60;99.90;;;;;;4835075;29;20062;-84
2022/09/13 01:07:23;;;;;;;5.50;5.00;;;10.10;99.90;;;;;;4859552;29;20382;-84
2022/09/13 01:09:52;;;;;;;6.35;5.72;;;9.40;99.90;;;;;;4877730;29;20051;-84
2022/09/13 01:12:39;;;;;;;7.53;4.93;;;9.60;99.90;;;;;;4844359;29;20052;-84
2022/09/13 01:15:11;;;;;;;6.05;5.30;;;9.70;99.90;;;;;;4844790;29;20061;-84
2022/09/13 01:17:39;;;;;;;6.80;5.30;;;9.80;99.90;;;;;;4858539;29;20513;-84
2022/09/13 01:20:08;;;;;;;5.40;4.90;;;9.70;99.90;;;;;;4875330;29;20053;-84
2022/09/13 01:22:56;;;;;;;8.70;5.18;;;9.80;99.90;;;;;;4851888;29;20057;-84
2022/09/13 01:25:37;;;;;;;5.97;5.38;;;9.80;99.90;;;;;;4872171;29;20048;-84
2022/09/13 01:28:32;;;;;;;6.03;5.43;;;9.80;99.90;;;;;;4843109;29;20613;-83
2022/09/13 01:31:13;;;;;;;4.32;3.85;;;9.70;99.90;;;;;;4843970;29;20057;-84
2022/09/13 01:34:07;;;;;;;7.35;6.57;;;9.70;99.90;;;;;;4839568;29;20048;-83
2022/09/13 01:36:43;;;;;;;4.82;4.43;;;9.90;99.90;;;;;;4839682;29;20056;-84
2022/09/13 01:39:42;;;;;;;5.95;5.03;;;9.60;99.90;;;;;;4844069;29;20053;-84
2022/09/13 01:42:35;;;;;;;4.57;3.92;;;9.60;99.90;;;;;;4806853;29;20041;-84
2022/09/13 01:45:31;;;;;;;7.40;4.85;;;9.60;99.90;;;;;;4874614;29;20053;-84
2022/09/13 01:48:08;;;;;;;4.75;3.75;;;9.60;99.90;;;;;;4841422;29;20056;-84
2022/09/13 01:51:03;;;;;;;7.70;5.68;;;9.50;99.90;;;;;;4858662;29;20056;-83
2022/09/13 01:53:39;;;;;;;4.55;4.10;;;9.60;99.90;;;;;;4852756;29;20045;-84
2022/09/13 01:56:38;;;;;;;5.72;2.90;;;9.40;99.90;;;;;;4842370;29;20040;-84
2022/09/13 01:59:20;;;;;;;3.10;2.88;;;9.30;99.90;;;;;;4843520;29;20081;-84
2022/09/13 02:02:09;;;;;;;4.40;4.00;;;9.30;99.90;;;;;;4869970;29;20054;-84
2022/09/13 02:05:00;;;;;;;6.57;5.35;;;9.10;99.90;;;;;;4834436;29;20053;-84
2022/09/13 02:07:32;;;;;;;;;;;8.80;99.90;;;;;;4858806;29;20061;-84
2022/09/13 02:10:15;;;;;;;7.95;5.45;;;9.20;99.90;;;;;;4873574;29;19935;-84
2022/09/13 02:12:53;;;;;;;4.07;3.30;;;9.30;99.90;;;;;;4831693;29;20060;-84
2022/09/13 02:15:51;;;;;;;5.55;3.95;;;9.30;99.90;;;;;;4840523;29;20060;-84
2022/09/13 02:18:38;;;;;;;4.13;3.72;;;9.40;99.90;;;;;;4836487;29;20060;-84
2022/09/13 02:21:25;;;;;;;3.92;3.55;;;9.10;99.90;;;;;;4819089;29;20465;-84
2022/09/13 02:24:08;;;;;;;6.95;4.55;;;9.30;99.90;;;;;;4836124;29;20049;-84
2022/09/13 02:26:43;;;;;;;5.70;5.30;;;9.10;99.90;;;;;;4821418;29;20135;-84
2022/09/13 02:29:21;;;;;;;6.43;5.30;;;9.20;99.90;;;;;;4837319;29;20056;-84
2022/09/13 02:32:04;;;;;;;8.63;5.60;;;9.40;99.90;;;;;;4867057;29;20046;-84
2022/09/13 02:34:59;;;;;;;8.07;5.75;;;9.20;99.90;;;;;;4850105;29;20064;-84
2022/09/13 02:37:37;;;;;;;7.13;5.72;;;9.10;99.90;;;;;;4872995;29;20056;-84
2022/09/13 02:40:16;;;;;;;9.15;6.55;;;9.30;99.90;;;;;;4858953;29;20049;-84
2022/09/13 02:43:09;;;;;;;6.50;5.47;;;9.60;99.90;;;;;;4847284;29;20073;-84
2022/09/13 02:46:15;;;;;;;5.85;3.60;;;9.50;99.90;;;;;;4847948;29;20052;-84
2022/09/13 02:49:16;;;;;;;4.63;4.13;;;9.40;99.90;;;;;;4848743;29;20084;-84
2022/09/13 02:51:58;;;;;;;5.85;5.28;;;9.10;99.90;;;;;;4838441;29;20057;-84
2022/09/13 02:54:56;;;;;;;6.55;4.57;;;8.90;99.90;;;;;;4815264;29;20065;-84
2022/09/13 02:57:44;;;;;;;5.65;5.15;;;8.90;99.90;;;;;;4808833;29;20060;-84
2022/09/13 03:00:20;;;;;;;8.10;5.45;;;8.90;99.90;;;;;;4837875;29;20069;-84
2022/09/13 03:02:53;;;;;;;7.07;5.80;;;9.00;99.90;;;;;;4840950;29;20048;-84
2022/09/13 03:05:25;;;;;;;5.95;5.35;;;8.80;99.90;;;;;;4845846;29;20907;-84
2022/09/13 03:08:02;;;;;;;6.00;5.38;;;9.10;99.90;;;;;;4831322;29;20050;-84
2022/09/13 03:11:00;;;;;;;7.28;6.18;;;9.00;99.90;;;;;;4823202;29;20061;-84
2022/09/13 03:13:54;;;;;;;7.10;5.85;;;9.10;99.90;;;;;;4827404;29;20053;-84
2022/09/13 03:16:54;;;;;;;7.65;6.07;;;9.20;99.90;;;;;;4825749;29;20049;-84
2022/09/13 03:19:51;;;;;;;6.93;5.88;;;9.10;99.90;;;;;;4842562;29;20069;-84
2022/09/13 03:22:32;;;;;;;6.75;5.20;;;9.10;99.90;;;;;;4829025;29;20064;-84
2022/09/13 03:25:20;;;;;;;6.30;5.53;;;9.20;99.90;;;;;;4845174;29;20063;-84
2022/09/13 03:28:14;;;;;;;7.13;6.25;;;9.20;99.90;;;;;;4841569;29;20049;-84
2022/09/13 03:30:54;;;;;;;5.32;4.80;;;9.10;99.90;;;;;;4870567;29;20049;-84
2022/09/13 03:33:35;;;;;;;7.03;6.05;;;9.10;99.90;;;;;;4860810;29;20415;-83
2022/09/13 03:36:23;;;;;;;9.18;5.50;;;9.20;99.90;;;;;;4854382;29;20511;-84
2022/09/13 03:39:01;;;;;;;7.38;4.63;;;9.10;99.90;;;;;;4839480;29;20057;-84
2022/09/13 03:41:37;;;;;;;35.33;7.28;;;9.20;99.90;;;;;;4875298;29;20049;-84
2022/09/13 03:44:09;;;;;;;6.00;5.40;;;9.20;99.90;;;;;;4848177;29;20056;-84
2022/09/13 03:46:47;;;;;;;3.70;3.40;;;8.90;99.90;;;;;;4861224;29;20061;-83
2022/09/13 03:49:21;;;;;;;4.90;4.28;;;8.90;99.90;;;;;;4860830;29;20498;-83
2022/09/13 03:51:52;;;;;;;;;;;9.00;99.90;;;;;;4841616;29;20054;-83
2022/09/13 03:54:27;;;;;;;6.45;4.72;;;8.80;99.90;;;;;;4845669;29;20382;-83
2022/09/13 03:57:07;;;;;;;9.25;6.85;;;9.30;99.90;;;;;;4808025;29;20054;-84
2022/09/13 03:59:37;;;;;;;6.85;5.75;;;9.30;99.90;;;;;;4859488;29;20053;-84
2022/09/13 04:02:10;;;;;;;6.28;5.00;;;9.40;99.90;;;;;;4853369;29;20487;-84
2022/09/13 04:04:40;;;;;;;7.28;5.85;;;9.30;99.90;;;;;;4842014;29;20408;-83
2022/09/13 04:07:10;;;;;;;7.95;5.88;;;9.30;99.90;;;;;;4841367;29;20056;-84
2022/09/13 04:09:38;;;;;;;30.98;5.60;;;9.40;99.90;;;;;;4859881;29;20064;-84
2022/09/13 04:50:36;;;;;;;6.20;5.60;;;8.90;99.90;;;;;;4819341;29;20127;-88
2022/09/13 04:53:34;;;;;;;5.95;4.40;;;9.20;99.90;;;;;;4858231;29;20068;-88
2022/09/13 04:57:07;;;;;;;5.00;4.60;;;9.50;99.90;;;;;;4818064;29;20065;-88
2022/09/13 05:00:01;;;;;;;6.45;5.05;;;9.40;99.90;;;;;;4818209;29;20509;-88
2022/09/13 05:02:56;;;;;;;8.00;5.55;;;9.20;99.90;;;;;;4832965;29;20068;-88
2022/09/13 05:05:32;;;;;;;18.58;6.05;;;9.30;99.90;;;;;;4829572;29;20741;-85
2022/09/13 05:08:10;;;;;;;3.40;3.10;;;9.00;99.90;;;;;;4861799;29;20045;-88
2022/09/13 05:11:00;;;;;;;4.50;3.63;;;8.70;99.90;;;;;;4832455;29;20057;-86
2022/09/13 05:13:30;;;;;;;5.22;4.72;;;8.60;99.90;;;;;;4831620;29;20052;-85
2022/09/13 05:16:01;;;;;;;3.30;3.00;;;8.70;99.90;;;;;;4832925;29;20057;-86
2022/09/13 05:18:32;;;;;;;5.10;4.60;;;8.70;99.90;;;;;;4849686;29;20053;-87
2022/09/13 05:21:08;;;;;;;;;;;8.70;99.90;;;;;;4826828;29;20057;-87
2022/09/13 05:23:41;;;;;;;4.38;3.70;;;8.70;99.90;;;;;;4814853;29;19928;-85
2022/09/13 06:24:02;;;;;;;5.82;4.40;;;10.90;99.90;;;;;;4766700;30;20043;-87
2022/09/13 06:38:26;;;;;;;4.93;4.43;;;13.10;99.90;;;;;;4710087;30;20068;-85
2022/09/13 06:57:07;;;;;;;;;;;;;;;;;;;;;
2022/09/13 07:04:18;;;;;;;3.13;2.83;;;14.80;99.90;;;;;;4763004;30;20091;-86
2022/09/13 07:08:14;;;;;;;3.78;3.47;;;14.70;99.90;;;;;;4772000;29;20054;-86
2022/09/13 07:12:08;;;;;;;3.03;2.83;;;14.90;99.90;;;;;;4733297;30;20541;-86
2022/09/13 07:16:45;;;;;;;2.83;2.63;;;15.20;99.90;;;;;;4753263;30;20051;-87
2022/09/13 07:20:42;;;;;;;3.17;2.92;;;15.40;99.90;;;;;;4736460;29;20055;-86
2022/09/13 07:24:44;;;;;;;3.17;2.90;;;15.30;99.90;;;;;;4764472;29;20054;-86
2022/09/13 07:28:48;;;;;;;;;;;;;;;;;;;;;
2022/09/13 07:35:46;;;;;;;4.40;3.05;;;15.70;99.90;;;;;;4727037;30;20508;-87
2022/09/13 07:38:36;;;;;;;2.15;2.05;;;16.00;99.90;;;;;;4733447;30;20051;-84
2022/09/13 07:47:10;;;;;;;10.65;2.67;;;16.00;99.90;;;;;;4777732;29;20500;-87
2022/09/13 07:49:38;;;;;;;2.17;2.08;;;16.10;99.90;;;;;;4792584;29;20138;-86
2022/09/13 07:52:06;;;;;;;2.25;2.15;;;16.20;99.90;;;;;;4801086;29;20058;-87
2022/09/13 07:54:37;;;;;;;2.50;2.30;;;16.10;99.90;;;;;;4817903;29;20053;-86
2022/09/13 07:57:21;;;;;;;2.05;1.80;;;16.40;99.90;;;;;;4830105;29;20061;-89
2022/09/13 07:59:52;;;;;;;1.88;1.77;;;16.50;99.90;;;;;;4840249;29;20068;-85
2022/09/13 08:02:19;;;;;;;3.00;2.73;;;16.60;99.90;;;;;;4838677;29;20061;-86
2022/09/13 08:10:41;;;;;;;2.13;2.00;;;16.80;99.90;;;;;;4815943;29;20488;-91
2022/09/13 08:13:55;;;;;;;4.20;2.05;;;17.50;99.90;;;;;;4831282;29;20542;-89
2022/09/13 08:21:58;;;;;;;2.10;1.98;;;17.40;99.90;;;;;;4803332;29;20063;-88
2022/09/13 08:39:32;;;;;;;1.90;1.80;;;17.80;99.90;;;;;;4644636;30;20080;-88
2022/09/13 08:44:03;;;;;;;;;;;;;;;;;;;;;
2022/09/13 08:48:21;;;;;;;;;;;;;;;;;;;;;
2022/09/13 08:57:40;;;;;;;3.20;1.98;;;18.10;99.90;;;;;;4660141;30;20055;-89
2022/09/13 09:06:02;;;;;;;2.72;1.77;;;18.00;99.90;;;;;;4605984;31;20110;-88
2022/09/13 09:50:09;;;;;;;1.50;1.40;;;20.00;99.90;;;;;;1399282;23;20991;-85
2022/09/13 09:52:56;;;;;;;4.70;1.55;;;20.20;99.90;;;;;;4818267;29;20044;-87
2022/09/13 09:55:45;;;;;;;1.30;1.20;;;20.20;99.90;;;;;;4856648;29;20056;-86
2022/09/13 09:58:46;;;;;;;1.73;1.48;;;20.10;99.90;;;;;;4873633;29;20057;-87
2022/09/13 10:02:00;;;;;;;9.18;2.20;;;20.10;99.90;;;;;;4833965;29;20049;-87
2022/09/13 10:04:29;;;;;;;3.70;1.17;;;20.20;99.90;;;;;;4817101;29;20056;-86
2022/09/13 10:07:17;;;;;;;1.00;1.00;;;20.20;99.90;;;;;;4848818;29;20049;-87
2022/09/13 10:10:03;;;;;;;1.92;1.73;;;20.30;99.90;;;;;;4826765;29;20064;-88
2022/09/13 10:12:39;;;;;;;1.20;1.15;;;20.30;99.90;;;;;;4878389;29;20057;-89
2022/09/13 10:15:16;;;;;;;3.28;1.42;;;20.50;99.90;;;;;;4859713;29;20630;-90
2022/09/13 10:18:25;;;;;;;2.17;0.98;;;20.60;99.90;;;;;;4858443;29;20411;-89
2022/09/13 10:21:16;;;;;;;3.05;1.48;;;20.70;99.90;;;;;;4858046;29;20049;-90
2022/09/13 10:23:48;;;;;;;1.63;1.50;;;20.90;99.90;;;;;;4858250;29;20052;-90
2022/09/13 10:26:27;;;;;;;1.50;1.23;;;21.00;99.90;;;;;;4842543;29;20072;-88
2022/09/13 10:29:15;;;;;;;1.67;1.17;;;21.10;99.90;;;;;;4877237;29;20415;-90
2022/09/13 10:31:47;;;;;;;3.40;2.00;;;21.10;99.90;;;;;;4870843;29;20091;-89
2022/09/13 10:34:20;;;;;;;1.40;1.30;;;21.20;99.90;;;;;;4856199;29;20049;-90
2022/09/13 10:36:56;;;;;;;1.23;1.13;;;21.20;99.90;;;;;;4855005;29;20050;-89
2022/09/13 10:39:31;;;;;;;1.90;1.80;;;21.10;99.90;;;;;;4858369;29;20053;-88
2022/09/13 10:42:04;;;;;;;2.05;1.80;;;21.20;99.90;;;;;;4866204;29;20064;-89
2022/09/13 10:44:36;;;;;;;1.95;1.25;;;21.20;99.90;;;;;;4871088;29;20057;-89
2022/09/13 10:47:10;;;;;;;4.68;1.27;;;21.40;99.90;;;;;;4843444;29;20057;-89
2022/09/13 10:49:53;;;;;;;3.88;1.40;;;21.60;99.90;;;;;;4849169;29;20061;-89
2022/09/13 10:52:26;;;;;;;3.08;1.40;;;21.40;99.90;;;;;;4845470;29;20049;-90
2022/09/13 10:54:54;;;;;;;4.55;1.40;;;21.50;99.90;;;;;;4841040;29;20053;-90
2022/09/13 10:57:35;;;;;;;1.58;1.20;;;21.70;99.90;;;;;;4855798;29;20415;-89
2022/09/13 11:00:10;;;;;;;1.40;1.27;;;21.80;99.90;;;;;;4855493;29;20100;-89
2022/09/13 11:02:59;;;;;;;1.10;1.10;;;21.80;99.90;;;;;;4851816;29;20054;-89
2022/09/13 11:05:50;;;;;;;1.92;1.75;;;21.90;99.90;;;;;;4854091;29;20045;-89
2022/09/13 11:23:17;;;;;;;0.90;0.90;;;22.50;99.90;;;;;;4733337;30;20585;-89
2022/09/13 11:26:40;;;;;;;1.30;1.20;;;22.90;99.90;;;;;;4743006;30;20054;-89
2022/09/13 11:39:14;;;;;;;1.50;1.40;;;23.40;99.90;;;;;;4723066;30;20042;-86
2022/09/13 11:47:18;;;;;;;;;;;;;;;;;;;;;
2022/09/13 12:00:31;;;;;;;1.30;1.20;;;23.20;99.90;;;;;;4690686;30;20055;-88
2022/09/13 12:47:39;;;;;;;1.40;1.30;;;23.20;99.90;;;;;;4506836;31;20073;-87
2022/09/13 13:35:42;;;;;;;1.02;0.80;;;24.40;99.90;;;;;;4667913;30;20099;-89
2022/09/13 14:03:54;;;;;;;;;;;;;;;;;;;;;
2022/09/13 14:12:04;;;;;;;1.65;1.00;;;24.60;98.00;;;;;;6109093;23;20006;-85
2022/09/13 14:14:57;;;;;;;0.95;0.90;;;25.10;98.00;;;;;;6155294;23;20017;-85
2022/09/13 14:17:28;;;;;;;1.55;0.80;;;24.90;99.20;;;;;;6076883;23;20026;-85
2022/09/13 14:20:03;;;;;;;1.13;0.93;;;24.90;99.90;;;;;;6151721;23;20018;-85
2022/09/13 14:22:30;;;;;;;2.47;1.08;;;24.70;98.80;;;;;;6166469;23;20025;-85
2022/09/13 14:25:13;;;;;;;2.05;0.95;;;24.50;98.80;;;;;;6132189;23;20468;-86
2022/09/13 14:27:44;;;;;;;9.48;3.83;;;24.30;99.90;;;;;;6166007;23;20021;-84
2022/09/13 14:30:26;;;;;;;1.90;1.33;;;24.20;99.90;;;;;;6156687;23;20033;-85
2022/09/13 14:32:56;;;;;;;1.73;1.10;;;24.10;99.90;;;;;;6161098;23;20493;-86
2022/09/13 14:35:32;;;;;;;0.75;0.75;;;24.00;99.90;;;;;;6168549;23;20024;-85
2022/09/13 14:38:22;;;;;;;0.70;0.70;;;24.00;99.90;;;;;;6157424;23;20766;-83
2022/09/13 14:40:52;;;;;;;4.00;1.13;;;24.00;99.90;;;;;;6161560;23;20044;-82
2022/09/13 14:43:23;;;;;;;0.70;0.70;;;23.90;99.90;;;;;;6155439;23;20334;-83
2022/09/13 14:46:24;;;;;;;0.75;0.75;;;23.90;99.90;;;;;;6157649;23;20029;-81
2022/09/13 14:48:53;;;;;;;1.25;1.13;;;23.80;99.90;;;;;;6160679;23;20034;-78
2022/09/13 14:51:43;;;;;;;6.38;1.35;;;23.80;99.90;;;;;;6189263;23;20562;-79
2022/09/13 14:54:20;;;;;;;0.70;0.70;;;23.70;99.90;;;;;;6177311;23;20029;-80
2022/09/13 14:56:52;;;;;;;0.88;0.88;;;23.60;99.90;;;;;;6184246;23;20025;-79
2022/09/13 14:59:29;;;;;;;1.80;0.95;;;23.50;99.90;;;;;;6190070;23;20013;-80
2022/09/13 15:01:57;;;;;;;0.80;0.80;;;23.30;99.90;;;;;;6180359;23;20444;-80
2022/09/13 15:04:29;;;;;;;2.22;0.80;;;23.30;99.90;;;;;;6160547;23;20040;-80
2022/09/13 15:07:34;;;;;;;0.80;0.77;;;23.30;99.90;;;;;;6153126;23;20021;-80
2022/09/13 15:10:25;;;;;;;1.13;1.13;;;23.30;99.90;;;;;;6154659;23;20025;-83
2022/09/13 15:13:01;;;;;;;0.90;0.90;;;23.30;99.90;;;;;;6153939;23;20029;-80
2022/09/13 15:15:40;;;;;;;1.63;1.17;;;23.20;99.90;;;;;;6154624;23;20044;-81
2022/09/13 15:18:16;;;;;;;6.43;1.35;;;23.20;99.90;;;;;;6180182;23;20029;-83
2022/09/13 15:20:54;;;;;;;0.98;0.80;;;23.10;99.90;;;;;;6185694;23;20029;-83
2022/09/13 15:23:27;;;;;;;5.97;1.10;;;23.00;99.90;;;;;;6130236;23;20017;-85
2022/09/13 15:26:05;;;;;;;2.78;1.30;;;23.00;99.90;;;;;;6155118;23;20029;-86
2022/09/13 15:28:47;;;;;;;5.13;0.73;;;23.10;99.90;;;;;;6162152;23;20036;-87
2022/09/13 15:31:23;;;;;;;0.85;0.80;;;23.20;99.90;;;;;;6189563;23;20021;-83
2022/09/13 15:34:21;;;;;;;0.65;0.65;;;23.50;99.90;;;;;;6180812;23;20028;-82
2022/09/13 15:37:00;;;;;;;1.67;0.80;;;23.60;99.90;;;;;;6184691;23;20357;-81
2022/09/13 15:39:28;;;;;;;2.35;1.50;;;23.50;99.90;;;;;;6190584;23;20344;-81
2022/09/13 15:41:58;;;;;;;1.95;1.10;;;23.50;99.90;;;;;;6180735;23;20024;-81
2022/09/13 15:44:28;;;;;;;2.25;0.80;;;23.30;99.90;;;;;;6185901;23;20036;-81
2022/09/13 15:47:01;;;;;;;1.30;1.20;;;23.30;99.90;;;;;;6189639;23;20017;-81
2022/09/13 15:49:29;;;;;;;0.80;0.80;;;23.10;99.90;;;;;;6181891;23;20024;-81
2022/09/13 15:52:01;;;;;;;1.63;0.75;;;23.10;99.90;;;;;;6188107;23;20024;-80
2022/09/13 15:54:34;;;;;;;2.65;1.50;;;22.90;99.90;;;;;;6188070;23;20024;-81
2022/09/13 15:57:07;;;;;;;0.80;0.80;;;22.80;99.90;;;;;;6182824;23;20032;-81
2022/09/13 15:59:35;;;;;;;0.88;0.60;;;22.70;99.90;;;;;;6189295;23;20333;-81
2022/09/13 16:02:35;;;;;;;1.08;0.98;;;22.50;99.90;;;;;;6179836;23;20040;-81
2022/09/13 16:05:02;;;;;;;2.03;1.17;;;22.50;99.90;;;;;;6183638;23;20029;-80
2022/09/13 16:07:30;;;;;;;0.60;0.60;;;22.40;99.90;;;;;;6189521;23;20854;-82
2022/09/13 16:09:57;;;;;;;1.92;1.67;;;22.30;99.90;;;;;;6180415;23;20036;-80
2022/09/13 16:12:25;;;;;;;1.35;0.90;;;22.20;99.90;;;;;;6185466;23;20032;-81
2022/09/13 16:14:53;;;;;;;1.23;0.88;;;22.00;99.90;;;;;;6188993;23;20672;-80
2022/09/13 16:17:26;;;;;;;0.77;0.77;;;21.90;99.90;;;;;;6182377;23;20029;-80
2022/09/13 16:19:54;;;;;;;1.95;1.08;;;21.80;99.90;;;;;;6188478;23;20024;-80
2022/09/13 16:22:22;;;;;;;0.70;0.70;;;21.60;99.90;;;;;;6189304;23;20570;-81
2022/09/13 16:24:50;;;;;;;0.80;0.80;;;21.40;99.90;;;;;;6184753;23;20029;-79
2022/09/13 16:27:18;;;;;;;0.75;0.75;;;21.50;99.90;;;;;;6189806;23;20456;-80
2022/09/13 16:29:46;;;;;;;5.50;1.30;;;21.20;99.90;;;;;;6180242;23;20021;-80
2022/09/13 16:32:14;;;;;;;6.57;1.40;;;21.10;99.90;;;;;;6185852;23;20021;-79
2022/09/13 16:34:41;;;;;;;4.75;0.88;;;20.80;99.90;;;;;;6189600;23;20024;-80
2022/09/13 16:37:13;;;;;;;0.95;0.75;;;20.90;99.90;;;;;;6182752;23;20373;-81
2022/09/13 16:39:41;;;;;;;1.02;1.02;;;20.80;99.90;;;;;;6189644;23;20028;-80
2022/09/13 16:42:08;;;;;;;2.47;1.23;;;20.60;99.90;;;;;;6179359;23;20464;-82
2022/09/13 16:44:36;;;;;;;2.65;1.58;;;20.60;99.90;;;;;;6185892;23;20021;-81
2022/09/13 16:47:03;;;;;;;3.63;1.13;;;20.50;99.90;;;;;;6189375;23;20013;-81
2022/09/13 16:49:31;;;;;;;7.63;2.00;;;20.50;99.90;;;;;;6181567;23;20061;-80
2022/09/13 16:51:58;;;;;;;3.95;0.75;;;20.50;99.90;;;;;;6187326;23;20782;-81
2022/09/13 16:54:29;;;;;;;4.95;0.90;;;20.40;99.90;;;;;;6189496;23;20028;-81
2022/09/13 16:56:59;;;;;;;6.93;1.92;;;20.40;99.90;;;;;;6183447;23;20032;-81
2022/09/13 16:59:26;;;;;;;4.32;1.00;;;20.30;99.90;;;;;;6189419;23;20040;-80
2022/09/13 17:01:54;;;;;;;3.28;1.23;;;20.20;99.90;;;;;;6179034;23;20021;-80
2022/09/13 17:04:22;;;;;;;0.80;0.80;;;20.10;99.90;;;;;;6184537;23;20365;-79
2022/09/13 17:06:50;;;;;;;2.20;1.00;;;20.00;99.90;;;;;;6188608;23;20020;-80
2022/09/13 17:09:19;;;;;;;1.23;1.17;;;19.80;99.90;;;;;;6181673;23;20040;-80
2022/09/13 17:11:47;;;;;;;1.93;1.83;;;19.60;99.90;;;;;;6187400;23;20066;-78
2022/09/13 17:14:16;;;;;;;1.27;1.00;;;19.50;99.90;;;;;;6189083;23;20020;-78
2022/09/13 17:16:51;;;;;;;1.30;1.20;;;19.60;99.90;;;;;;6185866;23;20494;-79
2022/09/13 17:19:24;;;;;;;14.13;3.03;;;19.40;99.90;;;;;;6190750;23;20017;-79
2022/09/13 17:21:53;;;;;;;1.13;0.90;;;19.50;99.90;;;;;;6180888;23;20400;-80
2022/09/13 17:24:20;;;;;;;4.93;1.30;;;19.60;99.90;;;;;;6152562;23;20037;-78
2022/09/13 17:26:48;;;;;;;1.33;1.23;;;19.50;99.90;;;;;;6189574;23;20024;-79
2022/09/13 17:29:15;;;;;;;1.48;1.38;;;19.50;99.90;;;;;;6182513;23;20036;-80
2022/09/13 17:31:43;;;;;;;0.95;0.88;;;19.60;99.90;;;;;;6188306;23;20321;-79
2022/09/13 17:34:14;;;;;;;2.97;1.23;;;19.10;99.90;;;;;;6176808;23;20024;-80
2022/09/13 17:36:42;;;;;;;1.30;1.20;;;18.90;99.90;;;;;;6184269;23;20021;-80
2022/09/13 17:39:17;;;;;;;2.40;1.23;;;18.90;99.90;;;;;;6151511;23;20017;-80
2022/09/13 17:41:44;;;;;;;1.52;1.42;;;18.80;99.90;;;;;;6180172;23;20021;-79
2022/09/13 17:44:12;;;;;;;1.10;1.10;;;19.00;99.90;;;;;;6186176;23;20032;-80
2022/09/13 17:46:39;;;;;;;1.58;1.48;;;18.80;99.90;;;;;;6152729;23;20069;-80
2022/09/13 17:49:07;;;;;;;1.77;0.90;;;18.70;99.90;;;;;;6156791;23;20025;-81
2022/09/13 17:51:34;;;;;;;1.35;1.20;;;18.60;99.90;;;;;;6189556;23;20017;-80
2022/09/13 17:54:04;;;;;;;1.35;1.20;;;18.70;99.90;;;;;;6179473;23;20040;-81
2022/09/13 17:56:37;;;;;;;2.08;1.13;;;18.50;99.90;;;;;;6159686;23;20029;-80
2022/09/13 17:59:06;;;;;;;2.70;1.48;;;18.50;99.90;;;;;;6184964;23;20013;-80
2022/09/13 18:01:42;;;;;;;2.95;1.20;;;18.40;99.90;;;;;;6180842;23;20361;-80
2022/09/13 18:04:11;;;;;;;2.40;1.20;;;18.20;99.90;;;;;;6186345;23;20021;-80
2022/09/13 18:06:41;;;;;;;2.05;1.05;;;18.20;99.90;;;;;;6190343;23;20024;-79
2022/09/13 18:09:14;;;;;;;1.10;1.10;;;17.90;99.90;;;;;;6183130;23;20337;-81
2022/09/13 18:11:43;;;;;;;1.17;1.08;;;17.60;99.90;;;;;;6152701;23;20048;-81
2022/09/13 18:14:14;;;;;;;3.83;1.10;;;17.50;99.90;;;;;;6178792;23;20029;-83
2022/09/13 18:16:44;;;;;;;1.45;1.35;;;17.50;99.90;;;;;;6153054;23;20357;-82
2022/09/13 18:19:11;;;;;;;5.95;3.13;;;17.60;99.90;;;;;;6153818;23;20021;-83
2022/09/13 18:22:14;;;;;;;2.40;1.58;;;17.60;99.90;;;;;;6179183;23;20021;-83
2022/09/13 18:24:47;;;;;;;1.52;1.42;;;17.70;99.90;;;;;;6129055;23;20044;-81
2022/09/13 18:27:16;;;;;;;1.45;1.35;;;17.60;99.90;;;;;;6130361;23;20025;-84
2022/09/13 18:29:45;;;;;;;3.35;2.70;;;17.70;99.90;;;;;;6154199;23;20524;-83
2022/09/13 18:32:13;;;;;;;1.27;1.25;;;17.50;99.90;;;;;;6186961;23;20029;-83
2022/09/13 18:34:47;;;;;;;4.40;1.55;;;17.70;99.90;;;;;;6191795;23;20013;-86
2022/09/13 18:38:19;;;;;;;1.20;1.20;;;17.40;99.90;;;;;;6141802;23;20791;-86
2022/09/13 18:41:16;;;;;;;4.53;1.42;;;17.20;99.90;;;;;;6186162;23;20021;-84
2022/09/13 18:43:51;;;;;;;2.20;2.05;;;17.40;99.90;;;;;;6153577;23;20017;-84
2022/09/13 18:46:31;;;;;;;1.75;1.65;;;17.60;99.90;;;;;;6181454;23;20318;-84
2022/09/13 18:49:00;;;;;;;1.73;1.63;;;17.60;99.90;;;;;;6154130;23;20649;-84
2022/09/13 18:51:32;;;;;;;1.50;1.40;;;17.70;99.90;;;;;;6107138;23;20069;-84
2022/09/13 18:54:01;;;;;;;1.70;1.60;;;17.70;99.90;;;;;;6155511;23;20040;-84
2022/09/13 18:56:46;;;;;;;1.65;1.55;;;17.30;99.90;;;;;;6130260;23;20540;-86
2022/09/13 18:59:34;;;;;;;1.52;1.48;;;17.30;99.90;;;;;;6159762;23;20020;-85
2022/09/13 19:02:02;;;;;;;3.22;1.30;;;17.00;99.90;;;;;;6091196;23;20025;-79
2022/09/13 19:04:34;;;;;;;1.75;1.65;;;16.90;99.90;;;;;;6152902;23;20036;-79
2022/09/13 19:07:05;;;;;;;3.17;1.70;;;17.00;99.90;;;;;;6190331;23;20020;-80
2022/09/13 19:09:34;;;;;;;3.97;3.25;;;17.00;99.90;;;;;;6156314;23;20040;-80
2022/09/13 19:12:05;;;;;;;2.33;1.48;;;17.10;99.90;;;;;;6188434;23;20020;-81
2022/09/13 19:14:41;;;;;;;1.55;1.45;;;17.10;99.90;;;;;;6154641;23;20451;-82
2022/09/13 19:17:16;;;;;;;1.83;1.60;;;17.00;99.90;;;;;;6129005;23;20029;-80
2022/09/13 19:19:45;;;;;;;2.15;1.73;;;17.00;99.90;;;;;;6190135;23;20009;-83
2022/09/13 19:22:22;;;;;;;1.98;1.83;;;17.30;99.90;;;;;;6179139;23;20024;-81
2022/09/13 19:24:53;;;;;;;1.92;1.70;;;17.10;99.90;;;;;;6159893;23;20352;-80
2022/09/13 19:27:24;;;;;;;2.45;2.03;;;17.10;99.90;;;;;;6155054;23;20444;-81
2022/09/13 19:30:03;;;;;;;3.17;2.17;;;17.00;99.90;;;;;;6180817;23;20036;-79
2022/09/13 19:32:33;;;;;;;1.67;1.58;;;17.00;99.90;;;;;;6183493;23;20036;-80
2022/09/13 19:35:04;;;;;;;25.00;5.70;;;17.00;99.90;;;;;;6189704;23;20021;-78
2022/09/13 19:37:41;;;;;;;11.38;4.95;;;16.90;99.90;;;;;;6153022;23;20032;-80
2022/09/13 19:40:18;;;;;;;2.40;2.20;;;17.00;99.90;;;;;;6162645;23;20028;-81
2022/09/13 19:43:04;;;;;;;2.47;2.20;;;16.90;99.90;;;;;;6180111;23;20021;-82
2022/09/13 19:45:41;;;;;;;3.22;2.42;;;17.00;99.90;;;;;;6183373;23;20044;-81
2022/09/13 19:48:13;;;;;;;2.13;1.50;;;17.00;99.90;;;;;;6156296;23;20082;-82
2022/09/13 19:51:13;;;;;;;3.90;2.05;;;17.00;99.90;;;;;;6134450;23;20032;-81
2022/09/13 19:53:58;;;;;;;1.75;1.65;;;16.90;99.90;;;;;;6153404;23;20029;-81
2022/09/13 19:56:31;;;;;;;1.88;1.60;;;16.80;99.90;;;;;;6153720;23;20025;-80
2022/09/13 19:59:04;;;;;;;1.38;1.35;;;16.70;99.90;;;;;;6192438;23;20452;-81
2022/09/13 20:01:59;;;;;;;1.83;1.70;;;16.70;99.90;;;;;;6183349;23;20025;-83
2022/09/13 20:04:31;;;;;;;2.70;2.35;;;16.60;99.90;;;;;;6138927;23;20032;-83
2022/09/13 20:07:12;;;;;;;5.03;2.25;;;16.60;99.90;;;;;;6134250;23;20440;-85
2022/09/13 20:09:45;;;;;;;2.88;2.17;;;16.60;99.90;;;;;;6137474;23;20381;-83
2022/09/13 20:12:18;;;;;;;2.28;2.05;;;16.60;99.90;;;;;;6152736;23;20021;-83
2022/09/13 20:14:48;;;;;;;4.10;2.20;;;16.70;99.90;;;;;;6145222;23;20016;-83
2022/09/13 20:17:21;;;;;;;1.83;1.73;;;16.80;99.90;;;;;;6134479;23;20032;-84
2022/09/13 20:20:19;;;;;;;2.30;1.88;;;16.60;99.90;;;;;;6162215;23;20017;-83
2022/09/13 20:22:50;;;;;;;2.65;2.25;;;16.60;99.90;;;;;;6132488;23;20025;-83
2022/09/13 20:25:22;;;;;;;2.00;1.90;;;16.50;99.90;;;;;;6109744;23;20024;-83